< < Back
Terminal Aerodrome Forecast


Current Version              Previous Versions:   1  2  3  4  5  6  7  8  9  

Terminal Aerodrome Forecast

366
FTUS42 KJAX 281720
TAFJAX
TAF
KJAX 281720Z 2818/2918 24007KT P6SM VCTS SCT035CB BKN250
     FM281900 16007KT P6SM VCTS BKN040CB BKN250
     FM290300 22004KT P6SM BKN250
     FM291500 26006KT P6SM FEW030 BKN250=

Latest METAR

333
SAUS80 KWBC 282300 RRA
MTRJAX
METAR KJAX 282256Z 26004KT 10SM FEW050 SCT130 BKN250 28/22 A2991 RMK AO2
SLP128 T02780222


USA.gov is the U.S. government's official web portal to all federal, state and local government web resources and services.